Time;durP1;ratioP1;P1;durP2;ratioP2;P2;SDS_P1;SDS_P2;PMS_P1;PMS_P2;Temp;Humidity;BMP_temperature;BMP_pressure;BME280_temperature;BME280_humidity;BME280_pressure;Samples;Min_cycle;Max_cycle;Signal;HPM_P1;HPM_P2
2023/04/16 00:02:11;;;;;;;2.17;1.98;;;;;;;;;;5050544;28;20136;-73
2023/04/16 00:04:36;;;;;;;2.40;2.20;;;;;;;;;;5050683;28;20475;-71
2023/04/16 00:07:02;;;;;;;2.88;2.60;;;;;;;;;;5050985;28;20044;-71
2023/04/16 00:09:27;;;;;;;2.92;2.65;;;;;;;;;;5051268;28;20157;-71
2023/04/16 00:11:52;;;;;;;2.00;1.90;;;;;;;;;;5049426;28;20041;-71
2023/04/16 00:14:18;;;;;;;3.13;2.70;;;;;;;;;;5051332;28;20067;-71
2023/04/16 00:16:43;;;;;;;3.67;2.40;;;;;;;;;;5050448;28;20048;-71
2023/04/16 00:19:09;;;;;;;2.00;1.80;;;;;;;;;;5051380;28;20501;-71
2023/04/16 00:21:34;;;;;;;2.78;2.45;;;;;;;;;;5051274;28;20166;-71
2023/04/16 00:23:59;;;;;;;2.75;2.28;;;;;;;;;;5049403;28;20420;-71
2023/04/16 00:26:25;;;;;;;2.60;2.40;;;;;;;;;;5050373;28;20045;-71
2023/04/16 00:28:51;;;;;;;2.30;2.10;;;;;;;;;;5051162;28;20043;-71
2023/04/16 00:31:16;;;;;;;3.10;2.63;;;;;;;;;;5040514;28;20041;-71
2023/04/16 00:33:42;;;;;;;2.17;1.98;;;;;;;;;;5012713;28;20049;-72
2023/04/16 00:36:08;;;;;;;2.20;2.00;;;;;;;;;;5031208;28;20046;-71
2023/04/16 00:38:34;;;;;;;2.00;1.85;;;;;;;;;;5040611;28;20053;-71
2023/04/16 00:40:59;;;;;;;2.60;2.40;;;;;;;;;;5049477;28;20032;-71
2023/04/16 00:43:26;;;;;;;3.13;2.40;;;;;;;;;;5049471;28;20044;-71
2023/04/16 00:45:52;;;;;;;2.85;2.60;;;;;;;;;;5042830;28;20049;-71
2023/04/16 00:48:19;;;;;;;3.45;2.78;;;;;;;;;;5031269;28;20049;-71
2023/04/16 00:50:45;;;;;;;2.88;2.58;;;;;;;;;;5049967;28;20094;-71
2023/04/16 00:53:11;;;;;;;2.50;2.30;;;;;;;;;;5050716;28;20029;-71
2023/04/16 00:55:38;;;;;;;2.95;2.58;;;;;;;;;;5049822;28;20120;-71
2023/04/16 00:58:04;;;;;;;4.03;3.55;;;;;;;;;;5048397;28;20055;-70
2023/04/16 01:00:29;;;;;;;3.88;3.47;;;;;;;;;;5048324;28;20041;-71
2023/04/16 01:02:55;;;;;;;4.32;2.95;;;;;;;;;;5048867;28;20068;-71
2023/04/16 01:05:21;;;;;;;3.95;2.67;;;;;;;;;;5049153;28;20044;-71
2023/04/16 01:07:46;;;;;;;3.53;3.17;;;;;;;;;;5049967;28;20033;-71
2023/04/16 01:10:11;;;;;;;6.95;4.30;;;;;;;;;;5049056;28;20049;-71
2023/04/16 01:12:37;;;;;;;4.68;3.92;;;;;;;;;;5049286;28;20033;-71
2023/04/16 01:15:03;;;;;;;5.15;3.92;;;;;;;;;;5049881;28;20122;-71
2023/04/16 01:17:29;;;;;;;6.78;5.05;;;;;;;;;;5050375;28;20041;-71
2023/04/16 01:19:58;;;;;;;7.63;5.43;;;;;;;;;;5048428;28;20043;-71
2023/04/16 01:22:24;;;;;;;5.70;4.70;;;;;;;;;;5031798;28;20044;-71
2023/04/16 01:24:49;;;;;;;4.13;3.72;;;;;;;;;;5049800;28;20045;-71
2023/04/16 01:27:15;;;;;;;3.97;3.58;;;;;;;;;;5048955;28;20076;-71
2023/04/16 01:29:40;;;;;;;5.88;4.30;;;;;;;;;;5049145;28;20060;-71
2023/04/16 01:32:06;;;;;;;4.35;3.50;;;;;;;;;;5045352;28;20049;-71
2023/04/16 01:34:35;;;;;;;3.60;3.22;;;;;;;;;;5040435;28;20041;-71
2023/04/16 01:37:00;;;;;;;3.95;3.50;;;;;;;;;;5039780;28;20106;-71
2023/04/16 01:39:26;;;;;;;4.07;3.67;;;;;;;;;;5035815;28;20067;-71
2023/04/16 01:41:51;;;;;;;2.95;2.35;;;;;;;;;;5041139;28;20077;-71
2023/04/16 01:44:17;;;;;;;3.17;2.90;;;;;;;;;;5049448;28;20049;-71
2023/04/16 01:46:43;;;;;;;3.80;3.45;;;;;;;;;;5049689;28;20087;-71
2023/04/16 01:49:08;;;;;;;6.50;4.57;;;;;;;;;;5048507;28;20045;-71
2023/04/16 01:51:34;;;;;;;5.15;3.22;;;;;;;;;;5048347;28;20049;-71
2023/04/16 01:54:00;;;;;;;3.95;3.55;;;;;;;;;;5046810;28;20429;-70
2023/04/16 01:56:25;;;;;;;4.60;3.85;;;;;;;;;;5049446;28;20045;-71
2023/04/16 01:58:51;;;;;;;6.53;4.95;;;;;;;;;;5048404;28;20041;-71
2023/04/16 02:01:18;;;;;;;6.10;5.15;;;;;;;;;;5037887;28;20060;-71
2023/04/16 02:03:44;;;;;;;4.65;3.85;;;;;;;;;;5015549;28;20045;-71
2023/04/16 02:06:10;;;;;;;4.15;3.75;;;;;;;;;;5047625;28;20833;-71
2023/04/16 02:08:35;;;;;;;5.43;4.25;;;;;;;;;;5049554;28;20041;-71
2023/04/16 02:11:01;;;;;;;4.07;3.67;;;;;;;;;;5048019;28;20098;-71
2023/04/16 02:13:27;;;;;;;6.40;4.78;;;;;;;;;;5049171;28;20041;-71
2023/04/16 02:15:52;;;;;;;6.13;4.68;;;;;;;;;;5047490;28;20033;-71
2023/04/16 02:18:27;;;;;;;4.05;3.55;;;;;;;;;;5032293;28;20056;-71
2023/04/16 02:20:53;;;;;;;5.93;4.43;;;;;;;;;;5031422;28;20049;-71
2023/04/16 02:23:19;;;;;;;6.18;4.85;;;;;;;;;;5047634;28;20178;-71
2023/04/16 02:25:46;;;;;;;5.57;4.32;;;;;;;;;;5046205;28;20150;-70
2023/04/16 02:28:14;;;;;;;6.38;4.95;;;;;;;;;;5047615;28;20041;-70
2023/04/16 02:30:41;;;;;;;5.65;4.43;;;;;;;;;;5031257;28;20040;-71
2023/04/16 02:33:09;;;;;;;4.38;3.53;;;;;;;;;;5047494;28;20048;-71
2023/04/16 02:35:37;;;;;;;5.32;4.15;;;;;;;;;;5064155;28;20408;-71
2023/04/16 02:38:03;;;;;;;6.55;4.75;;;;;;;;;;5039027;28;20055;-68
2023/04/16 02:40:29;;;;;;;6.43;4.50;;;;;;;;;;5047557;28;20159;-68
2023/04/16 02:42:55;;;;;;;4.13;3.55;;;;;;;;;;5049102;28;20048;-68
2023/04/16 02:45:22;;;;;;;3.33;3.03;;;;;;;;;;5047321;28;20056;-68
2023/04/16 02:47:48;;;;;;;6.88;4.80;;;;;;;;;;5046477;28;20048;-69
2023/04/16 02:50:14;;;;;;;3.92;3.45;;;;;;;;;;5048581;28;20088;-70
2023/04/16 02:52:40;;;;;;;3.50;3.20;;;;;;;;;;5047642;28;20114;-71
2023/04/16 02:55:05;;;;;;;3.78;3.30;;;;;;;;;;5047365;28;20045;-68
2023/04/16 02:57:31;;;;;;;2.90;2.70;;;;;;;;;;5047595;28;20505;-70
2023/04/16 02:59:57;;;;;;;6.18;4.00;;;;;;;;;;5046170;28;20114;-69
2023/04/16 03:02:23;;;;;;;5.60;3.92;;;;;;;;;;5047170;28;20091;-71
2023/04/16 03:04:48;;;;;;;4.40;3.95;;;;;;;;;;5048757;28;20045;-70
2023/04/16 03:07:14;;;;;;;6.82;5.15;;;;;;;;;;5047528;28;20056;-69
2023/04/16 03:09:40;;;;;;;4.15;3.75;;;;;;;;;;5048124;28;20048;-69
2023/04/16 03:12:05;;;;;;;5.55;4.28;;;;;;;;;;5046421;28;20759;-68
2023/04/16 03:14:31;;;;;;;6.18;5.07;;;;;;;;;;5051301;28;20572;-70
2023/04/16 03:16:57;;;;;;;5.30;4.32;;;;;;;;;;5035363;28;20515;-69
2023/04/16 03:19:22;;;;;;;4.10;3.63;;;;;;;;;;5032770;28;20691;-69
2023/04/16 03:21:48;;;;;;;6.65;4.22;;;;;;;;;;5035940;28;20076;-69
2023/04/16 03:24:16;;;;;;;5.30;4.30;;;;;;;;;;5050769;28;20048;-69
2023/04/16 03:26:41;;;;;;;3.28;2.83;;;;;;;;;;5050905;28;20416;-69
2023/04/16 03:29:08;;;;;;;7.43;5.47;;;;;;;;;;5051055;28;20033;-69
2023/04/16 03:31:33;;;;;;;5.30;4.22;;;;;;;;;;5043019;28;20041;-70
2023/04/16 03:33:59;;;;;;;3.95;3.15;;;;;;;;;;5045455;28;20037;-70
2023/04/16 03:36:26;;;;;;;6.63;5.28;;;;;;;;;;5046388;28;20063;-69
2023/04/16 03:38:52;;;;;;;5.57;4.18;;;;;;;;;;5024494;28;20099;-69
2023/04/16 03:41:18;;;;;;;7.03;5.75;;;;;;;;;;5030838;28;20070;-69
2023/04/16 03:43:44;;;;;;;9.10;5.18;;;;;;;;;;5028730;28;20065;-70
2023/04/16 03:46:10;;;;;;;7.38;5.45;;;;;;;;;;5030203;28;20049;-70
2023/04/16 03:48:36;;;;;;;6.55;5.00;;;;;;;;;;5036631;28;20087;-70
2023/04/16 03:51:02;;;;;;;6.25;4.78;;;;;;;;;;5043299;28;20492;-69
2023/04/16 03:53:28;;;;;;;5.00;3.55;;;;;;;;;;5049352;28;20203;-70
2023/04/16 03:55:54;;;;;;;6.93;4.70;;;;;;;;;;5048259;28;20049;-69
2023/04/16 03:58:20;;;;;;;4.63;4.15;;;;;;;;;;5030545;28;20041;-69
2023/04/16 04:00:46;;;;;;;5.18;4.60;;;;;;;;;;5030246;28;20041;-69
2023/04/16 04:03:15;;;;;;;5.85;4.38;;;;;;;;;;5014205;28;20053;-69
2023/04/16 04:05:42;;;;;;;6.68;5.15;;;;;;;;;;5005261;28;20057;-71
2023/04/16 04:08:10;;;;;;;5.50;4.53;;;;;;;;;;5030361;28;20041;-69
2023/04/16 04:10:36;;;;;;;6.63;4.82;;;;;;;;;;5030490;28;20145;-71
2023/04/16 04:13:04;;;;;;;5.05;4.55;;;;;;;;;;5030154;28;20041;-69
2023/04/16 04:15:31;;;;;;;4.72;4.20;;;;;;;;;;5043193;28;20476;-69
2023/04/16 04:17:56;;;;;;;6.00;4.60;;;;;;;;;;5026148;28;20573;-70
2023/04/16 04:20:23;;;;;;;6.25;4.47;;;;;;;;;;5026941;28;20473;-69
2023/04/16 04:22:50;;;;;;;5.00;4.50;;;;;;;;;;5010296;28;20042;-69
2023/04/16 04:25:16;;;;;;;3.40;3.08;;;;;;;;;;5025606;28;20503;-69
2023/04/16 04:27:42;;;;;;;8.85;5.03;;;;;;;;;;5023985;28;20044;-69
2023/04/16 04:30:08;;;;;;;4.63;3.78;;;;;;;;;;5050332;28;20497;-69
2023/04/16 04:32:34;;;;;;;4.30;3.85;;;;;;;;;;5042814;28;20045;-68
2023/04/16 04:35:01;;;;;;;3.83;3.33;;;;;;;;;;5029665;28;20412;-69
2023/04/16 04:37:26;;;;;;;3.28;2.97;;;;;;;;;;5029107;28;20167;-69
2023/04/16 04:39:52;;;;;;;4.47;3.30;;;;;;;;;;5031724;28;20498;-69
2023/04/16 04:42:17;;;;;;;4.28;3.88;;;;;;;;;;5049248;28;20044;-71
2023/04/16 04:44:44;;;;;;;3.47;3.17;;;;;;;;;;5049578;28;20041;-69
2023/04/16 04:47:11;;;;;;;5.10;3.53;;;;;;;;;;5050774;28;20051;-69
2023/04/16 04:49:36;;;;;;;2.38;2.17;;;;;;;;;;5048891;28;20045;-70
2023/04/16 04:52:02;;;;;;;3.65;3.25;;;;;;;;;;5048430;28;20049;-69
2023/04/16 04:54:30;;;;;;;4.22;3.08;;;;;;;;;;5049527;28;20045;-69
2023/04/16 04:56:55;;;;;;;2.75;2.55;;;;;;;;;;5049073;28;20084;-69
2023/04/16 04:59:22;;;;;;;3.17;2.88;;;;;;;;;;5048750;28;20044;-70
2023/04/16 05:01:48;;;;;;;3.97;3.58;;;;;;;;;;5040319;28;20564;-70
2023/04/16 05:04:14;;;;;;;3.33;3.03;;;;;;;;;;5050443;28;20136;-71
2023/04/16 05:06:39;;;;;;;3.17;2.88;;;;;;;;;;5050748;28;20099;-69
2023/04/16 05:09:05;;;;;;;3.08;2.78;;;;;;;;;;5050645;28;20095;-69
2023/04/16 05:11:32;;;;;;;3.28;2.97;;;;;;;;;;5049475;28;20037;-69
2023/04/16 05:13:58;;;;;;;3.95;2.47;;;;;;;;;;5047915;28;20036;-69
2023/04/16 05:16:23;;;;;;;3.30;2.67;;;;;;;;;;5050021;28;20055;-69
2023/04/16 05:18:49;;;;;;;1.75;1.65;;;;;;;;;;5050369;28;20056;-70
2023/04/16 05:21:15;;;;;;;2.78;2.55;;;;;;;;;;5049586;28;20049;-71
2023/04/16 05:23:40;;;;;;;3.33;2.70;;;;;;;;;;5049878;28;20057;-69
2023/04/16 05:26:06;;;;;;;4.55;3.13;;;;;;;;;;5049156;28;20045;-69
2023/04/16 05:28:31;;;;;;;4.45;2.88;;;;;;;;;;5050273;28;20048;-70
2023/04/16 05:30:56;;;;;;;2.47;2.28;;;;;;;;;;5049982;28;20103;-69
2023/04/16 05:33:22;;;;;;;2.17;1.98;;;;;;;;;;5041847;28;20049;-69
2023/04/16 05:35:47;;;;;;;2.50;2.30;;;;;;;;;;5048779;28;20098;-70
2023/04/16 05:38:13;;;;;;;2.22;2.08;;;;;;;;;;5049904;28;20053;-68
2023/04/16 05:40:38;;;;;;;1.83;1.73;;;;;;;;;;5049851;28;20048;-69
2023/04/16 05:43:04;;;;;;;2.60;2.25;;;;;;;;;;5049883;28;20789;-70
2023/04/16 05:45:32;;;;;;;1.73;1.50;;;;;;;;;;5048800;28;20033;-70
2023/04/16 05:47:57;;;;;;;6.65;2.75;;;;;;;;;;5049088;28;20040;-69
2023/04/16 05:50:23;;;;;;;2.10;2.00;;;;;;;;;;5049809;28;20045;-69
2023/04/16 05:52:48;;;;;;;2.10;1.95;;;;;;;;;;5049643;28;20049;-70
2023/04/16 05:55:13;;;;;;;1.88;1.77;;;;;;;;;;5047223;28;20051;-70
2023/04/16 05:57:39;;;;;;;1.95;1.77;;;;;;;;;;5049685;28;21116;-69
2023/04/16 06:00:05;;;;;;;1.60;1.50;;;;;;;;;;5049239;28;20068;-70
2023/04/16 06:02:37;;;;;;;0.90;0.90;;;;;;;;;;5029766;28;20056;-69
2023/04/16 06:05:03;;;;;;;1.40;1.30;;;;;;;;;;5029496;28;20053;-68
2023/04/16 06:07:28;;;;;;;2.60;1.75;;;;;;;;;;5041015;28;20037;-69
2023/04/16 06:09:54;;;;;;;1.00;0.90;;;;;;;;;;5047466;28;20051;-68
2023/04/16 06:12:19;;;;;;;1.17;1.17;;;;;;;;;;5049442;28;20040;-69
2023/04/16 06:14:45;;;;;;;1.13;1.08;;;;;;;;;;5049316;28;20187;-69
2023/04/16 06:17:11;;;;;;;1.50;1.40;;;;;;;;;;5048220;28;20098;-70
2023/04/16 06:19:36;;;;;;;1.10;1.02;;;;;;;;;;5049281;28;20091;-68
2023/04/16 06:22:01;;;;;;;1.20;1.10;;;;;;;;;;5048540;28;20048;-68
2023/04/16 06:24:27;;;;;;;1.30;1.20;;;;;;;;;;5049069;28;20686;-70
2023/04/16 06:26:53;;;;;;;0.90;0.90;;;;;;;;;;5049271;28;20041;-69
2023/04/16 06:29:18;;;;;;;1.13;1.02;;;;;;;;;;5048314;28;20067;-69
2023/04/16 06:31:44;;;;;;;0.82;0.82;;;;;;;;;;5048245;28;20785;-70
2023/04/16 06:34:09;;;;;;;0.90;0.90;;;;;;;;;;5049096;28;20048;-69
2023/04/16 06:36:36;;;;;;;1.00;1.00;;;;;;;;;;5047880;28;20044;-70
2023/04/16 06:39:02;;;;;;;0.60;0.60;;;;;;;;;;5048357;28;20053;-69
2023/04/16 06:41:27;;;;;;;0.52;0.52;;;;;;;;;;5048701;28;20029;-71
2023/04/16 06:43:53;;;;;;;0.80;0.80;;;;;;;;;;5048620;28;20041;-69
2023/04/16 06:46:18;;;;;;;1.02;0.90;;;;;;;;;;5037258;28;20401;-69
2023/04/16 06:48:44;;;;;;;1.33;0.93;;;;;;;;;;5029362;28;20080;-69
2023/04/16 06:51:10;;;;;;;0.80;0.80;;;;;;;;;;5040649;28;20052;-69
2023/04/16 06:53:36;;;;;;;0.60;0.60;;;;;;;;;;5052888;28;20045;-69
2023/04/16 06:56:01;;;;;;;0.50;0.50;;;;;;;;;;5052123;28;20059;-68
2023/04/16 06:58:27;;;;;;;2.65;0.70;;;;;;;;;;5052973;28;20834;-69
2023/04/16 07:00:53;;;;;;;0.60;0.60;;;;;;;;;;5052172;28;20044;-69
2023/04/16 07:03:18;;;;;;;0.20;0.20;;;;;;;;;;5052532;28;20635;-69
2023/04/16 07:05:43;;;;;;;0.40;0.40;;;;;;;;;;5052772;28;20143;-69
2023/04/16 07:08:09;;;;;;;0.47;0.47;;;;;;;;;;5052330;28;20045;-69
2023/04/16 07:10:34;;;;;;;0.50;0.50;;;;;;;;;;5052885;28;20045;-68
2023/04/16 07:13:00;;;;;;;0.38;0.38;;;;;;;;;;5050498;28;20095;-69
2023/04/16 07:15:26;;;;;;;0.40;0.40;;;;;;;;;;5052169;28;20053;-69
2023/04/16 07:17:51;;;;;;;0.57;0.40;;;;;;;;;;5052213;28;20210;-69
2023/04/16 07:20:17;;;;;;;0.40;0.40;;;;;;;;;;5051545;28;20135;-70
2023/04/16 07:22:43;;;;;;;0.50;0.50;;;;;;;;;;5051693;28;20473;-70
2023/04/16 07:25:09;;;;;;;0.30;0.30;;;;;;;;;;5052117;28;20036;-69
2023/04/16 07:27:34;;;;;;;0.40;0.40;;;;;;;;;;5051306;28;20056;-69
2023/04/16 07:30:00;;;;;;;0.35;0.35;;;;;;;;;;5051899;28;20055;-70
2023/04/16 07:32:25;;;;;;;0.30;0.30;;;;;;;;;;5031806;28;20045;-69
2023/04/16 07:34:51;;;;;;;0.30;0.30;;;;;;;;;;5037029;28;20045;-69
2023/04/16 07:37:16;;;;;;;0.40;0.40;;;;;;;;;;5052080;28;20045;-69
2023/04/16 07:39:41;;;;;;;1.20;0.22;;;;;;;;;;5050752;28;20052;-69
2023/04/16 07:42:07;;;;;;;0.40;0.40;;;;;;;;;;5051692;28;20048;-69
2023/04/16 07:44:32;;;;;;;0.40;0.40;;;;;;;;;;5049813;28;20052;-69
2023/04/16 07:46:57;;;;;;;0.30;0.30;;;;;;;;;;5051989;28;20132;-69
2023/04/16 07:49:23;;;;;;;0.30;0.30;;;;;;;;;;5052170;28;20053;-69
2023/04/16 07:51:48;;;;;;;0.47;0.45;;;;;;;;;;5051235;28;20110;-69
2023/04/16 07:54:14;;;;;;;0.30;0.30;;;;;;;;;;5052026;28;20052;-69
2023/04/16 07:56:39;;;;;;;0.20;0.20;;;;;;;;;;5050921;28;20527;-69
2023/04/16 07:59:05;;;;;;;0.30;0.30;;;;;;;;;;5050302;28;20051;-69
2023/04/16 08:01:31;;;;;;;0.30;0.30;;;;;;;;;;5051710;28;20045;-69
2023/04/16 08:03:56;;;;;;;0.40;0.40;;;;;;;;;;5066528;28;20530;-69
2023/04/16 08:06:22;;;;;;;0.22;0.22;;;;;;;;;;5050957;28;20065;-69
2023/04/16 08:08:47;;;;;;;0.35;0.35;;;;;;;;;;5051566;28;20386;-69
2023/04/16 08:11:14;;;;;;;0.32;0.32;;;;;;;;;;5050724;28;20037;-69
2023/04/16 08:13:40;;;;;;;0.30;0.30;;;;;;;;;;5051615;28;20420;-69
2023/04/16 08:16:05;;;;;;;0.40;0.40;;;;;;;;;;5050663;28;20045;-69
2023/04/16 08:18:31;;;;;;;0.30;0.30;;;;;;;;;;5050665;28;20041;-69
2023/04/16 08:20:56;;;;;;;0.32;0.32;;;;;;;;;;5051240;28;20090;-69
2023/04/16 08:23:22;;;;;;;0.28;0.28;;;;;;;;;;5049784;28;20085;-69
2023/04/16 08:25:47;;;;;;;0.30;0.30;;;;;;;;;;5050719;28;20251;-69
2023/04/16 08:28:12;;;;;;;0.20;0.20;;;;;;;;;;5050770;28;20041;-69
2023/04/16 08:30:38;;;;;;;0.40;0.28;;;;;;;;;;5051114;28;20044;-69
2023/04/16 08:33:04;;;;;;;0.30;0.30;;;;;;;;;;5050984;28;20052;-69
2023/04/16 08:35:29;;;;;;;0.30;0.30;;;;;;;;;;5049675;28;20132;-69
2023/04/16 08:37:56;;;;;;;0.20;0.20;;;;;;;;;;5050732;28;20520;-70
2023/04/16 08:40:24;;;;;;;0.20;0.20;;;;;;;;;;5050324;28;20053;-70
2023/04/16 08:42:55;;;;;;;0.75;0.75;;;;;;;;;;5050976;28;20049;-70
2023/04/16 08:45:21;;;;;;;0.23;0.20;;;;;;;;;;5050886;28;20053;-70
2023/04/16 08:47:49;;;;;;;0.20;0.20;;;;;;;;;;5050594;28;20037;-69
2023/04/16 08:50:15;;;;;;;0.20;0.20;;;;;;;;;;5050074;28;20065;-68
2023/04/16 08:52:51;;;;;;;0.30;0.30;;;;;;;;;;5050829;28;20056;-69
2023/04/16 08:55:19;;;;;;;0.30;0.30;;;;;;;;;;5049096;28;20520;-69
2023/04/16 08:57:53;;;;;;;0.30;0.30;;;;;;;;;;5050568;28;20476;-74
2023/04/16 09:00:19;;;;;;;0.40;0.40;;;;;;;;;;5050805;28;20075;-69
2023/04/16 09:02:44;;;;;;;0.20;0.20;;;;;;;;;;5049798;28;20076;-69
2023/04/16 09:05:15;;;;;;;0.63;0.50;;;;;;;;;;5050422;28;20083;-69
2023/04/16 09:07:43;;;;;;;0.20;0.20;;;;;;;;;;5049434;28;20410;-70
2023/04/16 09:10:09;;;;;;;0.20;0.20;;;;;;;;;;5048693;28;20306;-70
2023/04/16 09:12:35;;;;;;;0.15;0.15;;;;;;;;;;5048437;28;20140;-69
2023/04/16 09:15:02;;;;;;;0.20;0.20;;;;;;;;;;5048553;28;20136;-69
2023/04/16 09:17:28;;;;;;;0.20;0.20;;;;;;;;;;5050407;28;20049;-69
2023/04/16 09:19:53;;;;;;;0.25;0.20;;;;;;;;;;5049957;28;20052;-69
2023/04/16 09:22:19;;;;;;;0.32;0.30;;;;;;;;;;5050098;28;20124;-70
2023/04/16 09:24:45;;;;;;;0.20;0.20;;;;;;;;;;5049394;28;20036;-70
2023/04/16 09:27:11;;;;;;;0.20;0.20;;;;;;;;;;5050094;28;20071;-70
2023/04/16 09:29:39;;;;;;;0.22;0.22;;;;;;;;;;5050172;28;20056;-71
2023/04/16 09:32:10;;;;;;;0.20;0.20;;;;;;;;;;5049300;28;20139;-70
2023/04/16 09:34:52;;;;;;;0.20;0.20;;;;;;;;;;5049170;28;20040;-69
2023/04/16 09:37:18;;;;;;;0.10;0.10;;;;;;;;;;5049761;28;20040;-70
2023/04/16 09:39:44;;;;;;;0.20;0.20;;;;;;;;;;5050080;28;20045;-70
2023/04/16 09:42:10;;;;;;;0.20;0.20;;;;;;;;;;5029622;28;20532;-70
2023/04/16 09:44:37;;;;;;;0.20;0.20;;;;;;;;;;5028420;28;20120;-70
2023/04/16 09:47:07;;;;;;;0.20;0.20;;;;;;;;;;5029254;28;20041;-69
2023/04/16 09:49:34;;;;;;;0.22;0.22;;;;;;;;;;5017732;28;20418;-70
2023/04/16 09:52:01;;;;;;;0.20;0.20;;;;;;;;;;5009618;28;20045;-71
2023/04/16 09:54:26;;;;;;;0.20;0.20;;;;;;;;;;5010117;28;20085;-71
2023/04/16 09:56:55;;;;;;;0.20;0.20;;;;;;;;;;5015128;28;20489;-68
2023/04/16 09:59:22;;;;;;;0.22;0.22;;;;;;;;;;5028413;28;20448;-70
2023/04/16 10:01:48;;;;;;;0.30;0.30;;;;;;;;;;5029050;28;20125;-71
2023/04/16 10:04:14;;;;;;;0.68;0.68;;;;;;;;;;5029685;28;20045;-70
2023/04/16 10:06:40;;;;;;;0.20;0.20;;;;;;;;;;5029751;28;20056;-71
2023/04/16 10:09:08;;;;;;;0.30;0.30;;;;;;;;;;5028825;28;20065;-71
2023/04/16 10:11:34;;;;;;;0.10;0.10;;;;;;;;;;5028807;28;20037;-70
2023/04/16 10:14:00;;;;;;;0.10;0.10;;;;;;;;;;5029139;28;20049;-70
2023/04/16 10:16:26;;;;;;;0.30;0.20;;;;;;;;;;5034786;28;20106;-71
2023/04/16 10:18:52;;;;;;;0.22;0.17;;;;;;;;;;5040194;28;20061;-70
2023/04/16 10:21:18;;;;;;;0.20;0.20;;;;;;;;;;5029358;28;20103;-72
2023/04/16 10:23:45;;;;;;;0.20;0.20;;;;;;;;;;5028499;28;20556;-70
2023/04/16 10:26:10;;;;;;;0.30;0.30;;;;;;;;;;5045473;28;20053;-71
2023/04/16 10:28:36;;;;;;;0.20;0.20;;;;;;;;;;5029768;28;20057;-69
2023/04/16 10:31:06;;;;;;;0.20;0.20;;;;;;;;;;5021488;28;20044;-71
2023/04/16 10:33:38;;;;;;;0.20;0.20;;;;;;;;;;5021659;28;20632;-70
2023/04/16 10:36:14;;;;;;;;;;;;;;;;;;5029049;28;20049;-70
2023/04/16 10:38:48;;;;;;;0.20;0.20;;;;;;;;;;5029603;28;20012;-70
2023/04/16 10:41:14;;;;;;;0.20;0.20;;;;;;;;;;5028899;28;20068;-70
2023/04/16 10:43:43;;;;;;;0.20;0.20;;;;;;;;;;5029047;28;20041;-70
2023/04/16 10:46:35;;;;;;;0.30;0.30;;;;;;;;;;5028367;28;20041;-71
2023/04/16 10:49:01;;;;;;;;;;;;;;;;;;5029767;28;20043;-70
2023/04/16 10:51:30;;;;;;;0.65;0.32;;;;;;;;;;5028716;28;20094;-71
2023/04/16 10:54:15;;;;;;;0.20;0.20;;;;;;;;;;5027211;28;20128;-71
2023/04/16 10:56:44;;;;;;;0.30;0.30;;;;;;;;;;5021702;28;20617;-72
2023/04/16 10:59:10;;;;;;;0.20;0.20;;;;;;;;;;5029250;28;20211;-71
2023/04/16 11:01:39;;;;;;;0.20;0.20;;;;;;;;;;5028768;28;20655;-71
2023/04/16 11:04:20;;;;;;;0.20;0.20;;;;;;;;;;5024972;28;20045;-70
2023/04/16 11:07:05;;;;;;;0.17;0.17;;;;;;;;;;5029081;28;20049;-70
2023/04/16 11:09:45;;;;;;;0.30;0.30;;;;;;;;;;5027866;28;20057;-70
2023/04/16 11:12:21;;;;;;;0.30;0.30;;;;;;;;;;5027735;28;20123;-71
2023/04/16 11:14:51;;;;;;;0.30;0.30;;;;;;;;;;5028346;28;20038;-71
2023/04/16 11:17:19;;;;;;;0.40;0.40;;;;;;;;;;5028761;28;20512;-72
2023/04/16 11:19:45;;;;;;;0.30;0.30;;;;;;;;;;5029021;28;20118;-69
2023/04/16 11:22:16;;;;;;;0.20;0.20;;;;;;;;;;5028267;28;20460;-71
2023/04/16 11:24:43;;;;;;;0.30;0.30;;;;;;;;;;5024280;28;20057;-70
2023/04/16 11:27:10;;;;;;;0.30;0.30;;;;;;;;;;5025878;28;20045;-70
2023/04/16 11:29:36;;;;;;;0.43;0.43;;;;;;;;;;5029063;28;20110;-70
2023/04/16 11:32:01;;;;;;;0.80;0.30;;;;;;;;;;5028098;28;20049;-71
2023/04/16 11:34:27;;;;;;;1.05;0.57;;;;;;;;;;5029530;28;20068;-71
2023/04/16 11:36:52;;;;;;;0.40;0.30;;;;;;;;;;5031648;28;20080;-70
2023/04/16 11:39:18;;;;;;;0.70;0.70;;;;;;;;;;5032245;28;20091;-70
2023/04/16 11:41:45;;;;;;;5.97;4.68;;;;;;;;;;5048424;28;20040;-70
2023/04/16 11:44:21;;;;;;;0.45;0.45;;;;;;;;;;5050395;28;20052;-70
2023/04/16 11:46:48;;;;;;;0.47;0.47;;;;;;;;;;5051442;28;20037;-70
2023/04/16 11:49:14;;;;;;;0.40;0.40;;;;;;;;;;5051973;28;20172;-71
2023/04/16 11:51:41;;;;;;;0.40;0.40;;;;;;;;;;5050490;28;20075;-71
2023/04/16 11:54:07;;;;;;;2.22;2.03;;;;;;;;;;5051565;28;20060;-70
2023/04/16 11:56:34;;;;;;;0.45;0.45;;;;;;;;;;5052113;28;20057;-70
2023/04/16 11:59:10;;;;;;;0.50;0.50;;;;;;;;;;5042542;28;20064;-70
2023/04/16 12:01:36;;;;;;;0.60;0.47;;;;;;;;;;5044476;28;20045;-70
2023/04/16 12:04:03;;;;;;;0.30;0.30;;;;;;;;;;5051052;28;20056;-70
2023/04/16 12:06:31;;;;;;;0.32;0.32;;;;;;;;;;5051840;28;20052;-69
2023/04/16 12:08:57;;;;;;;0.38;0.38;;;;;;;;;;5051121;28;20060;-71
2023/04/16 12:11:41;;;;;;;0.40;0.40;;;;;;;;;;5050742;28;20079;-69
2023/04/16 12:14:11;;;;;;;0.35;0.35;;;;;;;;;;5050958;28;20175;-69
2023/04/16 12:16:36;;;;;;;0.55;0.47;;;;;;;;;;5051384;28;20087;-70
2023/04/16 12:19:03;;;;;;;0.40;0.40;;;;;;;;;;5051638;28;20152;-69
2023/04/16 12:21:59;;;;;;;3.33;0.40;;;;;;;;;;5045372;28;20053;-69
2023/04/16 12:24:26;;;;;;;0.60;0.60;;;;;;;;;;5012714;28;20552;-70
2023/04/16 12:26:56;;;;;;;0.50;0.50;;;;;;;;;;5031301;28;20041;-69
2023/04/16 12:29:23;;;;;;;0.52;0.50;;;;;;;;;;5030404;28;20410;-70
2023/04/16 12:31:51;;;;;;;0.43;0.43;;;;;;;;;;5030069;28;20128;-69
2023/04/16 12:34:17;;;;;;;0.40;0.40;;;;;;;;;;5030941;28;20049;-69
2023/04/16 12:36:45;;;;;;;0.40;0.40;;;;;;;;;;5031202;28;20120;-70
2023/04/16 12:39:11;;;;;;;0.45;0.45;;;;;;;;;;5031249;28;20895;-69
2023/04/16 12:41:38;;;;;;;0.32;0.32;;;;;;;;;;5030665;28;20049;-69
2023/04/16 12:44:05;;;;;;;0.50;0.50;;;;;;;;;;5030598;28;20520;-69
2023/04/16 12:46:31;;;;;;;0.32;0.32;;;;;;;;;;5021625;28;20410;-71
2023/04/16 12:48:56;;;;;;;0.68;0.68;;;;;;;;;;5031453;28;20506;-69
2023/04/16 12:51:22;;;;;;;0.45;0.45;;;;;;;;;;5031126;28;20072;-70
2023/04/16 12:53:48;;;;;;;0.52;0.52;;;;;;;;;;5027941;28;20044;-69
2023/04/16 12:56:14;;;;;;;0.68;0.68;;;;;;;;;;5030446;28;20132;-70
2023/04/16 12:58:40;;;;;;;0.50;0.50;;;;;;;;;;5030581;28;20571;-69
2023/04/16 13:01:05;;;;;;;0.50;0.50;;;;;;;;;;5029501;28;20038;-69
2023/04/16 13:03:30;;;;;;;0.45;0.45;;;;;;;;;;5042760;28;20049;-69
2023/04/16 13:05:56;;;;;;;0.95;0.60;;;;;;;;;;5047138;28;20575;-69
2023/04/16 13:08:22;;;;;;;0.32;0.32;;;;;;;;;;5029366;28;20131;-69
2023/04/16 13:10:47;;;;;;;0.50;0.50;;;;;;;;;;5029584;28;20041;-70
2023/04/16 13:13:13;;;;;;;1.05;0.55;;;;;;;;;;5012881;28;20052;-69
2023/04/16 13:15:38;;;;;;;0.50;0.50;;;;;;;;;;5029640;28;20034;-69
2023/04/16 13:18:04;;;;;;;0.52;0.52;;;;;;;;;;5030170;28;20042;-69
2023/04/16 13:20:29;;;;;;;0.32;0.32;;;;;;;;;;5029400;28;20045;-70
2023/04/16 13:22:55;;;;;;;0.35;0.35;;;;;;;;;;5030535;28;20490;-69
2023/04/16 13:25:21;;;;;;;0.40;0.40;;;;;;;;;;5028379;28;20037;-70
2023/04/16 13:27:46;;;;;;;0.50;0.50;;;;;;;;;;5023145;28;20482;-69
2023/04/16 13:30:12;;;;;;;0.47;0.47;;;;;;;;;;5029590;28;20136;-69
2023/04/16 13:32:37;;;;;;;0.65;0.65;;;;;;;;;;5028817;28;20045;-69
2023/04/16 13:35:03;;;;;;;2.15;0.50;;;;;;;;;;5030191;28;20056;-70
2023/04/16 13:37:28;;;;;;;0.50;0.50;;;;;;;;;;5029589;28;20048;-68
2023/04/16 13:39:55;;;;;;;0.45;0.45;;;;;;;;;;5029603;28;20129;-68
2023/04/16 13:42:20;;;;;;;0.40;0.40;;;;;;;;;;5029852;28;20049;-68
2023/04/16 13:44:48;;;;;;;0.65;0.65;;;;;;;;;;5029989;28;20056;-68
2023/04/16 13:47:13;;;;;;;0.40;0.40;;;;;;;;;;5028985;28;20041;-68
2023/04/16 13:49:39;;;;;;;0.40;0.40;;;;;;;;;;5029945;28;20124;-68
2023/04/16 13:52:04;;;;;;;0.40;0.40;;;;;;;;;;5029147;28;20048;-71
2023/04/16 13:54:30;;;;;;;0.60;0.60;;;;;;;;;;5030150;28;20472;-69
2023/04/16 13:56:55;;;;;;;0.45;0.45;;;;;;;;;;5029932;28;20510;-71
2023/04/16 13:59:21;;;;;;;1.10;0.75;;;;;;;;;;5029083;28;20064;-69
2023/04/16 14:01:46;;;;;;;1.10;0.60;;;;;;;;;;5029590;28;20099;-70
2023/04/16 14:04:11;;;;;;;0.45;0.45;;;;;;;;;;5027610;28;20053;-69
2023/04/16 14:06:37;;;;;;;0.60;0.60;;;;;;;;;;5029729;28;20137;-69
2023/04/16 14:09:03;;;;;;;0.50;0.50;;;;;;;;;;5029655;28;20057;-69
2023/04/16 14:11:28;;;;;;;1.05;0.60;;;;;;;;;;5022014;28;20064;-69
2023/04/16 14:13:54;;;;;;;0.80;0.50;;;;;;;;;;5038594;28;20037;-69
2023/04/16 14:16:19;;;;;;;0.88;0.60;;;;;;;;;;5029396;28;20472;-68
2023/04/16 14:18:45;;;;;;;0.60;0.60;;;;;;;;;;5029270;28;20068;-69
2023/04/16 14:21:12;;;;;;;0.80;0.80;;;;;;;;;;5028278;28;20053;-69
2023/04/16 14:23:37;;;;;;;1.17;0.50;;;;;;;;;;5024321;28;20045;-68
2023/04/16 14:26:03;;;;;;;0.68;0.60;;;;;;;;;;5026496;28;20468;-69
2023/04/16 14:28:28;;;;;;;0.45;0.45;;;;;;;;;;5026304;28;20498;-68
2023/04/16 14:30:53;;;;;;;0.73;0.73;;;;;;;;;;5033929;28;20049;-69
2023/04/16 14:33:19;;;;;;;0.40;0.40;;;;;;;;;;5030794;28;20046;-69
2023/04/16 14:35:45;;;;;;;0.43;0.43;;;;;;;;;;5027142;28;20056;-70
2023/04/16 14:38:13;;;;;;;0.52;0.52;;;;;;;;;;5029513;28;20060;-70
2023/04/16 14:40:38;;;;;;;0.60;0.60;;;;;;;;;;5034949;28;20076;-69